sensor_id;sensor_type;location;lat;lon;timestamp;P1;durP1;ratioP1;P2;durP2;ratioP2
58414;SDS011;44210;42.706;18.344;2022-12-07T00:01:42;6.38;;;3.55;;
58414;SDS011;44210;42.706;18.344;2022-12-07T00:04:10;4.97;;;3.10;;
58414;SDS011;44210;42.706;18.344;2022-12-07T00:06:37;6.03;;;3.25;;
58414;SDS011;44210;42.706;18.344;2022-12-07T00:09:04;4.45;;;3.08;;
58414;SDS011;44210;42.706;18.344;2022-12-07T00:11:30;5.88;;;3.80;;
58414;SDS011;44210;42.706;18.344;2022-12-07T00:13:57;5.72;;;3.00;;
58414;SDS011;44210;42.706;18.344;2022-12-07T00:16:25;6.07;;;3.25;;
58414;SDS011;44210;42.706;18.344;2022-12-07T00:18:51;5.43;;;3.30;;
58414;SDS011;44210;42.706;18.344;2022-12-07T00:23:44;7.78;;;2.80;;
58414;SDS011;44210;42.706;18.344;2022-12-07T00:26:14;4.00;;;1.98;;
58414;SDS011;44210;42.706;18.344;2022-12-07T00:28:41;4.88;;;2.58;;
58414;SDS011;44210;42.706;18.344;2022-12-07T00:31:11;5.07;;;2.10;;
58414;SDS011;44210;42.706;18.344;2022-12-07T00:33:37;3.35;;;2.17;;
58414;SDS011;44210;42.706;18.344;2022-12-07T00:36:05;3.72;;;1.70;;
58414;SDS011;44210;42.706;18.344;2022-12-07T00:38:32;3.97;;;1.85;;
58414;SDS011;44210;42.706;18.344;2022-12-07T00:40:59;3.45;;;2.10;;
58414;SDS011;44210;42.706;18.344;2022-12-07T00:43:26;7.50;;;3.42;;
58414;SDS011;44210;42.706;18.344;2022-12-07T00:45:52;5.43;;;3.17;;
58414;SDS011;44210;42.706;18.344;2022-12-07T00:48:19;6.50;;;3.92;;
58414;SDS011;44210;42.706;18.344;2022-12-07T00:50:45;7.43;;;4.10;;
58414;SDS011;44210;42.706;18.344;2022-12-07T00:53:11;4.97;;;3.00;;
58414;SDS011;44210;42.706;18.344;2022-12-07T00:55:37;4.38;;;2.15;;
58414;SDS011;44210;42.706;18.344;2022-12-07T00:58:03;7.07;;;3.20;;
58414;SDS011;44210;42.706;18.344;2022-12-07T01:00:29;3.65;;;2.38;;
58414;SDS011;44210;42.706;18.344;2022-12-07T01:02:56;6.25;;;2.97;;
58414;SDS011;44210;42.706;18.344;2022-12-07T01:05:22;4.07;;;2.25;;
58414;SDS011;44210;42.706;18.344;2022-12-07T01:07:48;5.15;;;1.88;;
58414;SDS011;44210;42.706;18.344;2022-12-07T01:10:14;4.32;;;1.73;;
58414;SDS011;44210;42.706;18.344;2022-12-07T01:12:40;2.92;;;1.95;;
58414;SDS011;44210;42.706;18.344;2022-12-07T01:15:06;4.97;;;2.03;;
58414;SDS011;44210;42.706;18.344;2022-12-07T01:17:33;2.80;;;1.50;;
58414;SDS011;44210;42.706;18.344;2022-12-07T01:19:59;5.28;;;2.78;;
58414;SDS011;44210;42.706;18.344;2022-12-07T01:22:25;6.07;;;3.15;;
58414;SDS011;44210;42.706;18.344;2022-12-07T01:24:51;5.80;;;2.72;;
58414;SDS011;44210;42.706;18.344;2022-12-07T01:27:17;4.65;;;2.92;;
58414;SDS011;44210;42.706;18.344;2022-12-07T01:29:43;2.90;;;2.22;;
58414;SDS011;44210;42.706;18.344;2022-12-07T01:32:09;4.03;;;2.78;;
58414;SDS011;44210;42.706;18.344;2022-12-07T01:34:36;9.07;;;4.10;;
58414;SDS011;44210;42.706;18.344;2022-12-07T01:37:02;7.95;;;4.22;;
58414;SDS011;44210;42.706;18.344;2022-12-07T01:39:28;6.07;;;3.13;;
58414;SDS011;44210;42.706;18.344;2022-12-07T01:41:54;8.55;;;3.53;;
58414;SDS011;44210;42.706;18.344;2022-12-07T01:44:24;7.78;;;3.92;;
58414;SDS011;44210;42.706;18.344;2022-12-07T01:46:54;9.07;;;3.45;;
58414;SDS011;44210;42.706;18.344;2022-12-07T01:49:36;9.55;;;3.10;;
58414;SDS011;44210;42.706;18.344;2022-12-07T01:54:49;7.68;;;3.45;;
58414;SDS011;44210;42.706;18.344;2022-12-07T01:57:16;4.82;;;2.83;;
58414;SDS011;44210;42.706;18.344;2022-12-07T01:59:43;5.35;;;3.20;;
58414;SDS011;44210;42.706;18.344;2022-12-07T02:02:13;6.13;;;3.08;;
58414;SDS011;44210;42.706;18.344;2022-12-07T02:04:39;6.07;;;2.90;;
58414;SDS011;44210;42.706;18.344;2022-12-07T02:07:05;4.20;;;2.33;;
58414;SDS011;44210;42.706;18.344;2022-12-07T02:09:32;4.15;;;2.50;;
58414;SDS011;44210;42.706;18.344;2022-12-07T02:11:58;5.85;;;2.55;;
58414;SDS011;44210;42.706;18.344;2022-12-07T02:14:24;5.97;;;1.98;;
58414;SDS011;44210;42.706;18.344;2022-12-07T02:17:04;7.63;;;2.30;;
58414;SDS011;44210;42.706;18.344;2022-12-07T02:19:39;3.97;;;1.95;;
58414;SDS011;44210;42.706;18.344;2022-12-07T02:29:49;4.82;;;2.00;;
58414;SDS011;44210;42.706;18.344;2022-12-07T02:40:14;7.55;;;2.72;;
58414;SDS011;44210;42.706;18.344;2022-12-07T02:42:42;6.68;;;2.22;;
58414;SDS011;44210;42.706;18.344;2022-12-07T02:45:10;5.07;;;2.33;;
58414;SDS011;44210;42.706;18.344;2022-12-07T02:47:37;7.97;;;2.67;;
58414;SDS011;44210;42.706;18.344;2022-12-07T02:50:05;7.40;;;3.03;;
58414;SDS011;44210;42.706;18.344;2022-12-07T02:52:32;7.53;;;3.50;;
58414;SDS011;44210;42.706;18.344;2022-12-07T02:54:58;7.70;;;4.22;;
58414;SDS011;44210;42.706;18.344;2022-12-07T03:00:00;8.32;;;3.03;;
58414;SDS011;44210;42.706;18.344;2022-12-07T03:10:28;11.47;;;2.73;;
58414;SDS011;44210;42.706;18.344;2022-12-07T03:15:31;5.55;;;2.78;;
58414;SDS011;44210;42.706;18.344;2022-12-07T03:17:59;4.68;;;2.53;;
58414;SDS011;44210;42.706;18.344;2022-12-07T03:20:26;4.82;;;2.95;;
58414;SDS011;44210;42.706;18.344;2022-12-07T03:22:53;5.57;;;3.03;;
58414;SDS011;44210;42.706;18.344;2022-12-07T03:25:20;8.10;;;2.92;;
58414;SDS011;44210;42.706;18.344;2022-12-07T03:30:15;8.77;;;3.10;;
58414;SDS011;44210;42.706;18.344;2022-12-07T03:35:13;5.63;;;3.17;;
58414;SDS011;44210;42.706;18.344;2022-12-07T03:40:44;10.02;;;4.72;;
58414;SDS011;44210;42.706;18.344;2022-12-07T03:43:03;5.15;;;2.95;;
58414;SDS011;44210;42.706;18.344;2022-12-07T03:45:32;8.10;;;3.13;;
58414;SDS011;44210;42.706;18.344;2022-12-07T03:50:29;6.85;;;2.88;;
58414;SDS011;44210;42.706;18.344;2022-12-07T03:52:58;5.90;;;2.63;;
58414;SDS011;44210;42.706;18.344;2022-12-07T03:55:35;9.95;;;2.53;;
58414;SDS011;44210;42.706;18.344;2022-12-07T03:58:03;9.55;;;3.35;;
58414;SDS011;44210;42.706;18.344;2022-12-07T04:00:30;5.38;;;2.22;;
58414;SDS011;44210;42.706;18.344;2022-12-07T04:02:56;7.00;;;2.47;;
58414;SDS011;44210;42.706;18.344;2022-12-07T04:05:22;4.43;;;2.22;;
58414;SDS011;44210;42.706;18.344;2022-12-07T04:07:48;7.15;;;1.90;;
58414;SDS011;44210;42.706;18.344;2022-12-07T04:10:14;5.97;;;1.58;;
58414;SDS011;44210;42.706;18.344;2022-12-07T04:12:40;7.00;;;1.98;;
58414;SDS011;44210;42.706;18.344;2022-12-07T04:15:06;6.22;;;1.90;;
58414;SDS011;44210;42.706;18.344;2022-12-07T04:17:33;4.90;;;2.20;;
58414;SDS011;44210;42.706;18.344;2022-12-07T04:19:59;3.85;;;2.17;;
58414;SDS011;44210;42.706;18.344;2022-12-07T04:22:25;5.75;;;2.53;;
58414;SDS011;44210;42.706;18.344;2022-12-07T04:24:51;7.53;;;2.47;;
58414;SDS011;44210;42.706;18.344;2022-12-07T04:27:17;7.13;;;2.40;;
58414;SDS011;44210;42.706;18.344;2022-12-07T04:29:43;5.60;;;3.10;;
58414;SDS011;44210;42.706;18.344;2022-12-07T04:32:09;7.63;;;3.33;;
58414;SDS011;44210;42.706;18.344;2022-12-07T04:34:35;5.15;;;2.75;;
58414;SDS011;44210;42.706;18.344;2022-12-07T04:37:01;9.75;;;2.80;;
58414;SDS011;44210;42.706;18.344;2022-12-07T04:39:28;6.55;;;2.47;;
58414;SDS011;44210;42.706;18.344;2022-12-07T04:41:55;4.95;;;2.97;;
58414;SDS011;44210;42.706;18.344;2022-12-07T04:44:22;4.15;;;2.05;;
58414;SDS011;44210;42.706;18.344;2022-12-07T04:46:49;6.40;;;2.40;;
58414;SDS011;44210;42.706;18.344;2022-12-07T04:49:15;5.82;;;2.35;;
58414;SDS011;44210;42.706;18.344;2022-12-07T04:51:41;4.35;;;1.40;;
58414;SDS011;44210;42.706;18.344;2022-12-07T04:54:08;5.93;;;2.40;;
58414;SDS011;44210;42.706;18.344;2022-12-07T04:56:34;6.07;;;2.42;;
58414;SDS011;44210;42.706;18.344;2022-12-07T04:59:00;6.35;;;2.70;;
58414;SDS011;44210;42.706;18.344;2022-12-07T05:01:26;5.00;;;2.30;;
58414;SDS011;44210;42.706;18.344;2022-12-07T05:03:52;4.38;;;1.92;;
58414;SDS011;44210;42.706;18.344;2022-12-07T05:06:19;6.28;;;2.47;;
58414;SDS011;44210;42.706;18.344;2022-12-07T05:08:45;7.60;;;4.45;;
58414;SDS011;44210;42.706;18.344;2022-12-07T05:11:11;8.88;;;4.55;;
58414;SDS011;44210;42.706;18.344;2022-12-07T05:13:57;6.68;;;3.28;;
58414;SDS011;44210;42.706;18.344;2022-12-07T05:16:23;7.57;;;3.70;;
58414;SDS011;44210;42.706;18.344;2022-12-07T05:18:49;6.90;;;3.53;;
58414;SDS011;44210;42.706;18.344;2022-12-07T05:21:15;6.95;;;3.95;;
58414;SDS011;44210;42.706;18.344;2022-12-07T05:23:41;5.90;;;4.05;;
58414;SDS011;44210;42.706;18.344;2022-12-07T05:26:07;8.73;;;4.35;;
58414;SDS011;44210;42.706;18.344;2022-12-07T05:28:33;8.77;;;4.40;;
58414;SDS011;44210;42.706;18.344;2022-12-07T05:30:59;7.75;;;4.05;;
58414;SDS011;44210;42.706;18.344;2022-12-07T05:33:25;4.70;;;3.50;;
58414;SDS011;44210;42.706;18.344;2022-12-07T05:35:51;11.65;;;3.17;;
58414;SDS011;44210;42.706;18.344;2022-12-07T05:38:17;4.07;;;2.70;;
58414;SDS011;44210;42.706;18.344;2022-12-07T05:40:43;5.53;;;2.20;;
58414;SDS011;44210;42.706;18.344;2022-12-07T05:43:09;3.25;;;2.25;;
58414;SDS011;44210;42.706;18.344;2022-12-07T05:45:35;6.15;;;4.05;;
58414;SDS011;44210;42.706;18.344;2022-12-07T05:48:01;6.57;;;3.70;;
58414;SDS011;44210;42.706;18.344;2022-12-07T05:50:27;8.38;;;4.47;;
58414;SDS011;44210;42.706;18.344;2022-12-07T05:52:53;7.10;;;4.13;;
58414;SDS011;44210;42.706;18.344;2022-12-07T05:55:20;17.65;;;11.07;;
58414;SDS011;44210;42.706;18.344;2022-12-07T05:57:46;15.73;;;9.43;;
58414;SDS011;44210;42.706;18.344;2022-12-07T06:00:30;14.07;;;8.75;;
58414;SDS011;44210;42.706;18.344;2022-12-07T06:02:56;10.40;;;7.30;;
58414;SDS011;44210;42.706;18.344;2022-12-07T06:05:22;12.30;;;7.20;;
58414;SDS011;44210;42.706;18.344;2022-12-07T06:07:49;15.07;;;11.90;;
58414;SDS011;44210;42.706;18.344;2022-12-07T06:10:15;34.13;;;26.67;;
58414;SDS011;44210;42.706;18.344;2022-12-07T06:12:41;18.25;;;13.00;;
58414;SDS011;44210;42.706;18.344;2022-12-07T06:15:08;32.08;;;26.58;;
58414;SDS011;44210;42.706;18.344;2022-12-07T06:17:35;15.82;;;9.80;;
58414;SDS011;44210;42.706;18.344;2022-12-07T06:20:01;13.70;;;8.23;;
58414;SDS011;44210;42.706;18.344;2022-12-07T06:22:27;15.60;;;12.18;;
58414;SDS011;44210;42.706;18.344;2022-12-07T06:24:53;11.77;;;8.52;;
58414;SDS011;44210;42.706;18.344;2022-12-07T06:27:19;14.88;;;9.43;;
58414;SDS011;44210;42.706;18.344;2022-12-07T06:29:45;16.17;;;9.90;;
58414;SDS011;44210;42.706;18.344;2022-12-07T06:32:11;14.32;;;11.13;;
58414;SDS011;44210;42.706;18.344;2022-12-07T06:34:37;30.35;;;21.23;;
58414;SDS011;44210;42.706;18.344;2022-12-07T06:37:04;22.52;;;15.23;;
58414;SDS011;44210;42.706;18.344;2022-12-07T06:39:30;18.20;;;14.32;;
58414;SDS011;44210;42.706;18.344;2022-12-07T06:41:56;22.33;;;18.65;;
58414;SDS011;44210;42.706;18.344;2022-12-07T06:44:22;17.88;;;12.20;;
58414;SDS011;44210;42.706;18.344;2022-12-07T06:46:49;19.52;;;15.88;;
58414;SDS011;44210;42.706;18.344;2022-12-07T06:49:15;30.55;;;24.67;;
58414;SDS011;44210;42.706;18.344;2022-12-07T06:51:42;15.02;;;10.70;;
58414;SDS011;44210;42.706;18.344;2022-12-07T06:54:09;22.30;;;20.10;;
58414;SDS011;44210;42.706;18.344;2022-12-07T06:56:35;27.23;;;21.55;;
58414;SDS011;44210;42.706;18.344;2022-12-07T06:59:01;30.65;;;26.02;;
58414;SDS011;44210;42.706;18.344;2022-12-07T07:01:27;32.45;;;25.88;;
58414;SDS011;44210;42.706;18.344;2022-12-07T07:03:53;47.63;;;38.28;;
58414;SDS011;44210;42.706;18.344;2022-12-07T07:06:19;36.88;;;31.23;;
58414;SDS011;44210;42.706;18.344;2022-12-07T07:08:45;11.10;;;8.45;;
58414;SDS011;44210;42.706;18.344;2022-12-07T07:11:11;12.75;;;9.07;;
58414;SDS011;44210;42.706;18.344;2022-12-07T07:13:38;10.55;;;7.80;;
58414;SDS011;44210;42.706;18.344;2022-12-07T07:16:04;13.50;;;9.57;;
58414;SDS011;44210;42.706;18.344;2022-12-07T07:18:30;21.42;;;11.60;;
58414;SDS011;44210;42.706;18.344;2022-12-07T07:20:57;17.58;;;10.57;;
58414;SDS011;44210;42.706;18.344;2022-12-07T07:23:23;17.98;;;12.98;;
58414;SDS011;44210;42.706;18.344;2022-12-07T07:25:49;17.10;;;13.68;;
58414;SDS011;44210;42.706;18.344;2022-12-07T07:28:16;14.27;;;9.52;;
58414;SDS011;44210;42.706;18.344;2022-12-07T07:30:42;12.98;;;10.10;;
58414;SDS011;44210;42.706;18.344;2022-12-07T07:33:09;10.27;;;7.13;;
58414;SDS011;44210;42.706;18.344;2022-12-07T07:35:35;9.80;;;7.10;;
58414;SDS011;44210;42.706;18.344;2022-12-07T07:38:01;17.88;;;8.85;;
58414;SDS011;44210;42.706;18.344;2022-12-07T07:40:27;15.00;;;8.05;;
58414;SDS011;44210;42.706;18.344;2022-12-07T07:42:54;12.25;;;8.25;;
58414;SDS011;44210;42.706;18.344;2022-12-07T07:45:21;12.77;;;8.88;;
58414;SDS011;44210;42.706;18.344;2022-12-07T07:47:48;13.27;;;10.40;;
58414;SDS011;44210;42.706;18.344;2022-12-07T07:50:14;12.43;;;9.10;;
58414;SDS011;44210;42.706;18.344;2022-12-07T07:52:41;12.55;;;9.60;;
58414;SDS011;44210;42.706;18.344;2022-12-07T07:55:07;18.77;;;12.48;;
58414;SDS011;44210;42.706;18.344;2022-12-07T07:57:33;15.20;;;11.77;;
58414;SDS011;44210;42.706;18.344;2022-12-07T07:59:59;20.80;;;12.30;;
58414;SDS011;44210;42.706;18.344;2022-12-07T08:02:25;16.83;;;9.43;;
58414;SDS011;44210;42.706;18.344;2022-12-07T08:04:54;20.98;;;12.90;;
58414;SDS011;44210;42.706;18.344;2022-12-07T08:07:20;19.35;;;14.05;;
58414;SDS011;44210;42.706;18.344;2022-12-07T08:09:46;29.00;;;22.00;;
58414;SDS011;44210;42.706;18.344;2022-12-07T08:12:12;25.02;;;22.33;;
58414;SDS011;44210;42.706;18.344;2022-12-07T08:14:38;12.57;;;7.18;;
58414;SDS011;44210;42.706;18.344;2022-12-07T08:17:05;28.20;;;24.63;;
58414;SDS011;44210;42.706;18.344;2022-12-07T08:19:31;19.55;;;10.30;;
58414;SDS011;44210;42.706;18.344;2022-12-07T08:21:57;10.85;;;5.32;;
58414;SDS011;44210;42.706;18.344;2022-12-07T08:24:23;9.75;;;6.28;;
58414;SDS011;44210;42.706;18.344;2022-12-07T08:26:50;15.80;;;8.63;;
58414;SDS011;44210;42.706;18.344;2022-12-07T08:29:16;9.13;;;4.72;;
58414;SDS011;44210;42.706;18.344;2022-12-07T08:31:42;13.00;;;8.00;;
58414;SDS011;44210;42.706;18.344;2022-12-07T08:34:09;13.50;;;7.68;;
58414;SDS011;44210;42.706;18.344;2022-12-07T08:36:36;8.55;;;4.90;;
58414;SDS011;44210;42.706;18.344;2022-12-07T08:39:02;10.70;;;3.58;;
58414;SDS011;44210;42.706;18.344;2022-12-07T08:41:28;14.40;;;4.40;;
58414;SDS011;44210;42.706;18.344;2022-12-07T08:43:55;6.32;;;3.67;;
58414;SDS011;44210;42.706;18.344;2022-12-07T08:51:13;6.55;;;2.90;;
58414;SDS011;44210;42.706;18.344;2022-12-07T08:53:39;8.57;;;3.92;;
58414;SDS011;44210;42.706;18.344;2022-12-07T08:56:05;14.15;;;5.95;;
58414;SDS011;44210;42.706;18.344;2022-12-07T08:58:32;14.48;;;4.25;;
58414;SDS011;44210;42.706;18.344;2022-12-07T09:00:58;14.82;;;5.72;;
58414;SDS011;44210;42.706;18.344;2022-12-07T09:03:25;15.70;;;7.88;;
58414;SDS011;44210;42.706;18.344;2022-12-07T09:05:52;12.73;;;7.78;;
58414;SDS011;44210;42.706;18.344;2022-12-07T09:08:18;12.80;;;7.45;;
58414;SDS011;44210;42.706;18.344;2022-12-07T09:10:44;15.63;;;7.05;;
58414;SDS011;44210;42.706;18.344;2022-12-07T09:13:11;11.60;;;5.35;;
58414;SDS011;44210;42.706;18.344;2022-12-07T09:15:37;10.05;;;6.68;;
58414;SDS011;44210;42.706;18.344;2022-12-07T09:18:03;21.85;;;8.85;;
58414;SDS011;44210;42.706;18.344;2022-12-07T09:20:29;18.65;;;8.35;;
58414;SDS011;44210;42.706;18.344;2022-12-07T09:22:55;16.67;;;4.00;;
58414;SDS011;44210;42.706;18.344;2022-12-07T09:25:21;15.27;;;3.58;;
58414;SDS011;44210;42.706;18.344;2022-12-07T09:27:47;15.73;;;4.18;;
58414;SDS011;44210;42.706;18.344;2022-12-07T09:30:13;15.30;;;3.70;;
58414;SDS011;44210;42.706;18.344;2022-12-07T09:32:39;12.90;;;3.53;;
58414;SDS011;44210;42.706;18.344;2022-12-07T09:35:05;8.80;;;3.15;;
58414;SDS011;44210;42.706;18.344;2022-12-07T09:37:31;14.90;;;3.25;;
58414;SDS011;44210;42.706;18.344;2022-12-07T09:40:01;16.35;;;3.22;;
58414;SDS011;44210;42.706;18.344;2022-12-07T09:42:28;13.95;;;4.97;;
58414;SDS011;44210;42.706;18.344;2022-12-07T09:44:55;22.17;;;12.40;;
58414;SDS011;44210;42.706;18.344;2022-12-07T09:47:23;17.63;;;7.72;;
58414;SDS011;44210;42.706;18.344;2022-12-07T09:49:49;17.08;;;7.00;;
58414;SDS011;44210;42.706;18.344;2022-12-07T09:54:41;49.95;;;36.65;;
58414;SDS011;44210;42.706;18.344;2022-12-07T09:57:08;26.05;;;12.98;;
58414;SDS011;44210;42.706;18.344;2022-12-07T09:59:37;47.58;;;39.17;;
58414;SDS011;44210;42.706;18.344;2022-12-07T10:04:48;39.50;;;30.27;;
58414;SDS011;44210;42.706;18.344;2022-12-07T10:07:14;42.00;;;33.15;;
58414;SDS011;44210;42.706;18.344;2022-12-07T10:09:40;23.38;;;12.13;;
58414;SDS011;44210;42.706;18.344;2022-12-07T10:12:07;17.77;;;11.48;;
58414;SDS011;44210;42.706;18.344;2022-12-07T10:14:35;22.17;;;9.95;;
58414;SDS011;44210;42.706;18.344;2022-12-07T10:17:01;13.60;;;5.53;;
58414;SDS011;44210;42.706;18.344;2022-12-07T10:19:31;17.52;;;3.78;;
58414;SDS011;44210;42.706;18.344;2022-12-07T10:22:14;11.27;;;4.50;;
58414;SDS011;44210;42.706;18.344;2022-12-07T10:24:41;16.50;;;3.33;;
58414;SDS011;44210;42.706;18.344;2022-12-07T10:27:29;15.90;;;4.05;;
58414;SDS011;44210;42.706;18.344;2022-12-07T10:29:55;10.75;;;3.58;;
58414;SDS011;44210;42.706;18.344;2022-12-07T10:38:00;38.95;;;7.30;;
58414;SDS011;44210;42.706;18.344;2022-12-07T10:45:27;16.30;;;7.43;;
58414;SDS011;44210;42.706;18.344;2022-12-07T10:53:03;10.85;;;3.00;;
58414;SDS011;44210;42.706;18.344;2022-12-07T11:00:46;11.63;;;2.95;;
58414;SDS011;44210;42.706;18.344;2022-12-07T11:03:25;9.80;;;3.20;;
58414;SDS011;44210;42.706;18.344;2022-12-07T11:08:38;9.95;;;3.63;;
58414;SDS011;44210;42.706;18.344;2022-12-07T11:11:09;9.07;;;3.38;;
58414;SDS011;44210;42.706;18.344;2022-12-07T11:16:15;12.77;;;6.32;;
58414;SDS011;44210;42.706;18.344;2022-12-07T11:18:54;16.63;;;5.10;;
58414;SDS011;44210;42.706;18.344;2022-12-07T11:21:41;17.00;;;9.63;;
58414;SDS011;44210;42.706;18.344;2022-12-07T11:24:16;17.95;;;9.43;;
58414;SDS011;44210;42.706;18.344;2022-12-07T11:29:26;17.45;;;7.43;;
58414;SDS011;44210;42.706;18.344;2022-12-07T11:34:44;23.42;;;16.17;;
58414;SDS011;44210;42.706;18.344;2022-12-07T11:37:16;31.55;;;17.42;;
58414;SDS011;44210;42.706;18.344;2022-12-07T11:39:49;21.65;;;12.30;;
58414;SDS011;44210;42.706;18.344;2022-12-07T11:42:27;20.00;;;9.27;;
58414;SDS011;44210;42.706;18.344;2022-12-07T11:44:57;16.30;;;7.32;;
58414;SDS011;44210;42.706;18.344;2022-12-07T11:47:36;17.65;;;7.68;;
58414;SDS011;44210;42.706;18.344;2022-12-07T11:52:50;24.35;;;9.63;;
58414;SDS011;44210;42.706;18.344;2022-12-07T11:55:29;38.38;;;23.83;;
58414;SDS011;44210;42.706;18.344;2022-12-07T11:58:04;21.70;;;11.95;;
58414;SDS011;44210;42.706;18.344;2022-12-07T12:00:37;18.77;;;7.50;;
58414;SDS011;44210;42.706;18.344;2022-12-07T12:03:11;20.38;;;7.72;;
58414;SDS011;44210;42.706;18.344;2022-12-07T12:05:38;20.67;;;8.13;;
58414;SDS011;44210;42.706;18.344;2022-12-07T12:08:11;16.45;;;6.80;;
58414;SDS011;44210;42.706;18.344;2022-12-07T12:20:47;14.35;;;4.70;;
58414;SDS011;44210;42.706;18.344;2022-12-07T12:23:34;14.90;;;5.10;;
58414;SDS011;44210;42.706;18.344;2022-12-07T12:26:02;18.98;;;5.30;;
58414;SDS011;44210;42.706;18.344;2022-12-07T12:31:05;16.27;;;4.43;;
58414;SDS011;44210;42.706;18.344;2022-12-07T12:33:32;20.33;;;4.20;;
58414;SDS011;44210;42.706;18.344;2022-12-07T12:41:58;10.82;;;3.17;;
58414;SDS011;44210;42.706;18.344;2022-12-07T12:54:21;16.92;;;2.80;;
58414;SDS011;44210;42.706;18.344;2022-12-07T12:59:30;12.70;;;3.10;;
58414;SDS011;44210;42.706;18.344;2022-12-07T13:02:07;13.77;;;3.17;;
58414;SDS011;44210;42.706;18.344;2022-12-07T13:10:01;14.80;;;3.33;;
58414;SDS011;44210;42.706;18.344;2022-12-07T13:12:27;10.73;;;2.80;;
58414;SDS011;44210;42.706;18.344;2022-12-07T13:14:55;14.00;;;3.33;;
58414;SDS011;44210;42.706;18.344;2022-12-07T13:17:54;19.30;;;4.72;;
58414;SDS011;44210;42.706;18.344;2022-12-07T13:20:07;14.05;;;4.05;;
58414;SDS011;44210;42.706;18.344;2022-12-07T13:27:38;31.60;;;19.83;;
58414;SDS011;44210;42.706;18.344;2022-12-07T13:30:39;26.02;;;11.38;;
58414;SDS011;44210;42.706;18.344;2022-12-07T13:32:58;28.90;;;14.53;;
58414;SDS011;44210;42.706;18.344;2022-12-07T13:35:35;24.00;;;13.30;;
58414;SDS011;44210;42.706;18.344;2022-12-07T13:38:05;27.52;;;13.57;;
58414;SDS011;44210;42.706;18.344;2022-12-07T13:40:32;20.80;;;13.20;;
58414;SDS011;44210;42.706;18.344;2022-12-07T13:42:59;21.02;;;8.57;;
58414;SDS011;44210;42.706;18.344;2022-12-07T13:48:32;16.00;;;6.03;;
58414;SDS011;44210;42.706;18.344;2022-12-07T13:50:57;10.93;;;3.17;;
58414;SDS011;44210;42.706;18.344;2022-12-07T13:53:24;12.52;;;3.67;;
58414;SDS011;44210;42.706;18.344;2022-12-07T13:55:55;11.43;;;3.97;;
58414;SDS011;44210;42.706;18.344;2022-12-07T13:58:21;9.93;;;3.58;;
58414;SDS011;44210;42.706;18.344;2022-12-07T14:00:48;17.52;;;9.05;;
58414;SDS011;44210;42.706;18.344;2022-12-07T14:05:41;20.73;;;7.05;;
58414;SDS011;44210;42.706;18.344;2022-12-07T14:10:37;14.60;;;6.88;;
58414;SDS011;44210;42.706;18.344;2022-12-07T14:13:22;12.63;;;5.10;;
58414;SDS011;44210;42.706;18.344;2022-12-07T14:15:51;13.85;;;6.28;;
58414;SDS011;44210;42.706;18.344;2022-12-07T14:21:02;13.88;;;7.45;;
58414;SDS011;44210;42.706;18.344;2022-12-07T14:23:28;10.65;;;7.53;;
58414;SDS011;44210;42.706;18.344;2022-12-07T14:26:03;16.10;;;7.57;;
58414;SDS011;44210;42.706;18.344;2022-12-07T14:28:33;14.27;;;8.35;;
58414;SDS011;44210;42.706;18.344;2022-12-07T14:31:00;20.45;;;11.48;;
58414;SDS011;44210;42.706;18.344;2022-12-07T14:33:26;21.67;;;8.55;;
58414;SDS011;44210;42.706;18.344;2022-12-07T14:35:52;22.55;;;5.70;;
58414;SDS011;44210;42.706;18.344;2022-12-07T14:38:23;12.90;;;6.78;;
58414;SDS011;44210;42.706;18.344;2022-12-07T14:40:49;19.42;;;9.70;;
58414;SDS011;44210;42.706;18.344;2022-12-07T14:43:16;28.05;;;19.30;;
58414;SDS011;44210;42.706;18.344;2022-12-07T14:45:42;28.90;;;19.45;;
58414;SDS011;44210;42.706;18.344;2022-12-07T14:48:12;64.22;;;39.63;;
58414;SDS011;44210;42.706;18.344;2022-12-07T14:50:41;25.00;;;16.88;;
58414;SDS011;44210;42.706;18.344;2022-12-07T14:53:12;25.52;;;13.35;;
58414;SDS011;44210;42.706;18.344;2022-12-07T14:55:39;16.40;;;10.25;;
58414;SDS011;44210;42.706;18.344;2022-12-07T14:58:05;18.67;;;9.32;;
58414;SDS011;44210;42.706;18.344;2022-12-07T15:00:31;19.23;;;11.30;;
58414;SDS011;44210;42.706;18.344;2022-12-07T15:02:59;15.25;;;11.57;;
58414;SDS011;44210;42.706;18.344;2022-12-07T15:05:25;22.73;;;12.60;;
58414;SDS011;44210;42.706;18.344;2022-12-07T15:07:51;28.27;;;16.30;;
58414;SDS011;44210;42.706;18.344;2022-12-07T15:10:19;36.95;;;23.45;;
58414;SDS011;44210;42.706;18.344;2022-12-07T15:12:45;36.13;;;23.60;;
58414;SDS011;44210;42.706;18.344;2022-12-07T15:15:11;33.60;;;22.13;;
58414;SDS011;44210;42.706;18.344;2022-12-07T15:17:38;23.77;;;15.32;;
58414;SDS011;44210;42.706;18.344;2022-12-07T15:20:04;28.63;;;16.50;;
58414;SDS011;44210;42.706;18.344;2022-12-07T15:22:30;28.33;;;16.33;;
58414;SDS011;44210;42.706;18.344;2022-12-07T15:24:57;23.90;;;14.20;;
58414;SDS011;44210;42.706;18.344;2022-12-07T15:27:23;31.83;;;18.65;;
58414;SDS011;44210;42.706;18.344;2022-12-07T15:29:49;50.38;;;28.75;;
58414;SDS011;44210;42.706;18.344;2022-12-07T15:32:15;38.33;;;26.58;;
58414;SDS011;44210;42.706;18.344;2022-12-07T15:34:41;30.52;;;22.73;;
58414;SDS011;44210;42.706;18.344;2022-12-07T15:37:07;24.15;;;17.17;;
58414;SDS011;44210;42.706;18.344;2022-12-07T15:39:34;30.10;;;17.83;;
58414;SDS011;44210;42.706;18.344;2022-12-07T15:42:00;26.13;;;16.98;;
58414;SDS011;44210;42.706;18.344;2022-12-07T15:44:26;19.95;;;13.98;;
58414;SDS011;44210;42.706;18.344;2022-12-07T15:47:11;22.02;;;13.23;;
58414;SDS011;44210;42.706;18.344;2022-12-07T15:49:37;19.60;;;11.48;;
58414;SDS011;44210;42.706;18.344;2022-12-07T15:52:03;21.95;;;11.05;;
58414;SDS011;44210;42.706;18.344;2022-12-07T15:54:29;21.65;;;11.32;;
58414;SDS011;44210;42.706;18.344;2022-12-07T15:56:57;16.13;;;10.35;;
58414;SDS011;44210;42.706;18.344;2022-12-07T15:59:23;22.65;;;11.45;;
58414;SDS011;44210;42.706;18.344;2022-12-07T16:01:49;19.90;;;11.93;;
58414;SDS011;44210;42.706;18.344;2022-12-07T16:04:15;21.65;;;13.68;;
58414;SDS011;44210;42.706;18.344;2022-12-07T16:06:41;21.88;;;13.38;;
58414;SDS011;44210;42.706;18.344;2022-12-07T16:09:07;20.58;;;13.00;;
58414;SDS011;44210;42.706;18.344;2022-12-07T16:11:33;23.20;;;12.82;;
58414;SDS011;44210;42.706;18.344;2022-12-07T16:13:59;20.63;;;13.90;;
58414;SDS011;44210;42.706;18.344;2022-12-07T16:16:26;18.65;;;10.88;;
58414;SDS011;44210;42.706;18.344;2022-12-07T16:18:52;22.77;;;10.63;;
58414;SDS011;44210;42.706;18.344;2022-12-07T16:21:19;29.27;;;10.38;;
58414;SDS011;44210;42.706;18.344;2022-12-07T16:23:45;28.70;;;7.35;;
58414;SDS011;44210;42.706;18.344;2022-12-07T16:26:12;23.63;;;11.27;;
58414;SDS011;44210;42.706;18.344;2022-12-07T16:28:39;22.40;;;8.65;;
58414;SDS011;44210;42.706;18.344;2022-12-07T16:31:15;18.92;;;9.40;;
58414;SDS011;44210;42.706;18.344;2022-12-07T16:33:42;18.42;;;8.75;;
58414;SDS011;44210;42.706;18.344;2022-12-07T16:36:10;13.23;;;7.28;;
58414;SDS011;44210;42.706;18.344;2022-12-07T16:38:36;17.30;;;9.45;;
58414;SDS011;44210;42.706;18.344;2022-12-07T16:41:03;19.73;;;11.45;;
58414;SDS011;44210;42.706;18.344;2022-12-07T16:43:29;20.98;;;13.00;;
58414;SDS011;44210;42.706;18.344;2022-12-07T16:45:55;21.50;;;13.30;;
58414;SDS011;44210;42.706;18.344;2022-12-07T16:48:21;26.10;;;14.82;;